createdAt,value
2023-03-11T00:00:22.858Z,3.60
2023-03-11T00:02:52.282Z,3.50
2023-03-11T00:05:29.492Z,3.60
2023-03-11T00:07:57.382Z,3.40
2023-03-11T00:10:37.301Z,3.50
2023-03-11T00:13:06.303Z,3.30
2023-03-11T00:15:34.384Z,3.30
2023-03-11T00:18:02.280Z,3.20
2023-03-11T00:20:32.428Z,3.30
2023-03-11T00:23:00.607Z,3.20
2023-03-11T00:25:30.400Z,3.30
2023-03-11T00:27:58.698Z,3.30
2023-03-11T00:30:27.091Z,3.40
2023-03-11T00:32:56.318Z,3.30
2023-03-11T00:35:27.252Z,3.40
2023-03-11T00:37:57.391Z,3.30
2023-03-11T00:40:27.017Z,3.20
2023-03-11T00:42:54.448Z,4.10
2023-03-11T00:45:22.292Z,3.10
2023-03-11T00:47:50.774Z,3.00
2023-03-11T00:50:21.005Z,3.00
2023-03-11T00:52:49.407Z,2.90
2023-03-11T00:55:21.092Z,2.70
2023-03-11T00:57:51.160Z,2.80
2023-03-11T01:00:20.401Z,2.80
2023-03-11T01:02:47.706Z,2.70
2023-03-11T01:05:15.389Z,2.70
2023-03-11T01:07:45.785Z,2.60
2023-03-11T01:10:14.252Z,2.60
2023-03-11T01:12:42.304Z,2.50
2023-03-11T01:15:19.485Z,2.50
2023-03-11T01:17:46.933Z,2.50
2023-03-11T01:20:14.613Z,2.40
2023-03-11T01:22:43.052Z,2.40
2023-03-11T01:25:14.066Z,2.40
2023-03-11T01:27:41.519Z,2.40
2023-03-11T01:30:10.098Z,2.30
2023-03-11T01:32:37.945Z,2.30
2023-03-11T01:35:05.594Z,2.30
2023-03-11T01:37:32.891Z,2.30
2023-03-11T01:40:00.164Z,2.20
2023-03-11T01:42:27.462Z,2.20
2023-03-11T01:44:55.626Z,1.90
2023-03-11T01:47:39.894Z,2.20
2023-03-11T01:50:12.700Z,2.10
2023-03-11T01:52:42.535Z,2.20
2023-03-11T01:55:12.335Z,2.20
2023-03-11T01:57:42.477Z,2.10
2023-03-11T02:00:11.981Z,2.00
2023-03-11T02:02:48.363Z,2.00
2023-03-11T02:05:16.826Z,2.00
2023-03-11T02:07:44.256Z,1.40
2023-03-11T02:10:13.703Z,1.90
2023-03-11T02:12:41.633Z,1.90
2023-03-11T02:15:10.659Z,1.90
2023-03-11T02:17:39.972Z,0.80
2023-03-11T02:20:16.530Z,1.90
2023-03-11T02:22:44.599Z,1.90
2023-03-11T02:25:35.277Z,1.90
2023-03-11T02:28:05.656Z,1.90
2023-03-11T02:30:35.016Z,1.80
2023-03-11T02:33:04.176Z,1.80
2023-03-11T02:35:31.713Z,1.80
2023-03-11T02:37:59.078Z,1.70
2023-03-11T02:40:46.312Z,1.70
2023-03-11T02:43:15.976Z,1.70
2023-03-11T02:45:46.035Z,1.50
2023-03-11T02:48:14.765Z,1.70
2023-03-11T02:50:42.317Z,1.70
2023-03-11T02:53:10.150Z,1.70
2023-03-11T02:55:37.536Z,1.70
2023-03-11T02:58:04.825Z,1.70
2023-03-11T03:00:32.414Z,1.70
2023-03-11T03:03:00.590Z,1.70
2023-03-11T03:05:28.229Z,1.60
2023-03-11T03:07:55.556Z,1.60
2023-03-11T03:10:22.974Z,1.80
2023-03-11T03:12:50.463Z,1.60
2023-03-11T03:15:17.864Z,2.50
2023-03-11T03:17:46.288Z,1.60
2023-03-11T03:20:14.344Z,1.60
2023-03-11T03:22:42.208Z,1.50
2023-03-11T03:25:10.871Z,1.50
2023-03-11T03:27:38.280Z,1.50
2023-03-11T03:30:07.082Z,1.50
2023-03-11T03:32:34.981Z,1.50
2023-03-11T03:35:02.988Z,1.50
2023-03-11T03:37:34.529Z,1.50
2023-03-11T03:40:02.604Z,1.40
2023-03-11T03:42:30.164Z,1.50
2023-03-11T03:44:57.457Z,1.50
2023-03-11T03:47:24.778Z,1.50
2023-03-11T03:49:52.135Z,1.50
2023-03-11T03:52:19.423Z,2.30
2023-03-11T03:54:47.773Z,2.70
2023-03-11T03:57:15.132Z,1.70
2023-03-11T03:59:45.065Z,1.50
2023-03-11T04:02:12.581Z,1.60
2023-03-11T04:04:40.137Z,1.60
2023-03-11T04:07:07.520Z,2.30
2023-03-11T04:09:34.908Z,1.50
2023-03-11T04:12:02.184Z,1.40
2023-03-11T04:14:29.915Z,1.40
2023-03-11T04:16:58.465Z,1.40
2023-03-11T04:19:26.243Z,1.50
2023-03-11T04:21:53.587Z,0.40
2023-03-11T04:24:21.098Z,2.80
2023-03-11T04:26:48.379Z,1.40
2023-03-11T04:29:15.726Z,1.40
2023-03-11T04:31:42.991Z,1.40
2023-03-11T04:34:10.394Z,1.40
2023-03-11T04:36:37.674Z,1.50
2023-03-11T04:39:04.941Z,1.50
2023-03-11T04:41:32.198Z,1.50
2023-03-11T04:44:00.411Z,1.50
2023-03-11T04:46:28.061Z,1.50
2023-03-11T04:48:55.391Z,1.50
2023-03-11T04:51:23.059Z,1.70
2023-03-11T04:53:50.320Z,4.00
2023-03-11T04:56:17.561Z,1.60
2023-03-11T04:58:44.886Z,1.60
2023-03-11T05:01:12.179Z,1.70
2023-03-11T05:03:39.527Z,1.60
2023-03-11T05:06:06.965Z,1.70
2023-03-11T05:08:34.244Z,1.70
2023-03-11T05:11:01.548Z,1.70
2023-03-11T05:13:30.434Z,1.70
2023-03-11T05:15:57.725Z,1.70
2023-03-11T05:18:25.129Z,1.70
2023-03-11T05:20:53.494Z,1.70
2023-03-11T05:23:20.961Z,1.80
2023-03-11T05:25:49.332Z,1.80
2023-03-11T05:28:17.618Z,1.80
2023-03-11T05:30:44.903Z,1.80
2023-03-11T05:33:12.233Z,2.80
2023-03-11T05:38:24.087Z,1.90
2023-03-11T05:40:51.584Z,1.10
2023-03-11T05:43:18.935Z,1.90
2023-03-11T05:45:46.316Z,1.90
2023-03-11T05:48:14.026Z,1.90
2023-03-11T05:50:41.902Z,2.00
2023-03-11T05:53:09.198Z,2.60
2023-03-11T05:55:36.465Z,2.00
2023-03-11T05:58:03.814Z,2.10
2023-03-11T06:00:32.126Z,2.40
2023-03-11T06:02:59.388Z,2.00
2023-03-11T06:05:27.957Z,2.00
2023-03-11T06:07:57.735Z,2.00
2023-03-11T06:10:25.016Z,1.40
2023-03-11T06:12:52.254Z,1.90
2023-03-11T06:15:19.513Z,1.90
2023-03-11T06:17:47.213Z,2.00
2023-03-11T06:20:14.845Z,1.90
2023-03-11T06:22:42.171Z,2.00
2023-03-11T06:25:11.233Z,2.00
2023-03-11T06:27:38.567Z,2.00
2023-03-11T06:30:06.356Z,1.90
2023-03-11T06:32:35.468Z,2.00
2023-03-11T06:35:03.520Z,1.90
2023-03-11T06:37:31.201Z,2.00
2023-03-11T06:39:59.955Z,2.10
2023-03-11T06:42:27.224Z,2.10
2023-03-11T06:44:54.522Z,2.10
2023-03-11T06:47:21.814Z,2.10
2023-03-11T06:49:51.287Z,2.10
2023-03-11T06:52:19.002Z,3.30
2023-03-11T06:54:47.150Z,2.20
2023-03-11T06:57:14.450Z,2.20
2023-03-11T06:59:41.708Z,2.20
2023-03-11T07:02:13.711Z,2.20
2023-03-11T07:04:40.996Z,2.90
2023-03-11T07:07:08.376Z,2.20
2023-03-11T07:09:35.894Z,2.20
2023-03-11T07:12:06.665Z,2.20
2023-03-11T07:14:34.156Z,2.20
2023-03-11T07:17:01.928Z,2.20
2023-03-11T07:19:29.763Z,1.90
2023-03-11T07:21:57.189Z,3.80
2023-03-11T07:24:24.478Z,2.30
2023-03-11T07:26:51.793Z,3.60
2023-03-11T07:29:20.300Z,2.40
2023-03-11T07:31:47.695Z,2.40
2023-03-11T07:34:15.343Z,2.50
2023-03-11T07:36:44.458Z,2.50
2023-03-11T07:39:16.239Z,2.50
2023-03-11T07:41:44.051Z,2.40
2023-03-11T07:44:13.406Z,3.60
2023-03-11T07:46:40.956Z,2.60
2023-03-11T07:49:09.517Z,2.70
2023-03-11T07:51:38.481Z,2.20
2023-03-11T07:54:05.949Z,2.70
2023-03-11T07:56:35.119Z,2.70
2023-03-11T07:59:04.418Z,2.80
2023-03-11T08:01:36.878Z,2.80
2023-03-11T08:04:06.181Z,2.80
2023-03-11T08:06:36.427Z,2.90
2023-03-11T08:09:07.837Z,2.90
2023-03-11T08:11:37.572Z,4.10
2023-03-11T08:14:05.770Z,3.10
2023-03-11T08:16:34.118Z,3.10
2023-03-11T08:19:01.886Z,3.10
2023-03-11T08:21:32.160Z,3.20
2023-03-11T08:24:01.877Z,3.30
2023-03-11T08:26:30.092Z,3.30
2023-03-11T08:28:58.534Z,3.30
2023-03-11T08:31:28.962Z,3.40
2023-03-11T08:34:02.798Z,3.40
2023-03-11T08:36:31.707Z,3.80
2023-03-11T08:38:59.570Z,2.40
2023-03-11T08:41:27.941Z,3.50
2023-03-11T08:43:55.657Z,3.50
2023-03-11T08:46:32.006Z,3.50
2023-03-11T08:49:01.202Z,3.60
2023-03-11T08:51:30.013Z,3.90
2023-03-11T08:53:57.527Z,3.80
2023-03-11T08:56:25.210Z,4.30
2023-03-11T08:58:52.787Z,4.00
2023-03-11T09:01:23.822Z,4.10
2023-03-11T09:03:52.309Z,4.20
2023-03-11T09:06:19.929Z,4.50
2023-03-11T09:08:48.463Z,4.30
2023-03-11T09:11:16.865Z,5.00
2023-03-11T09:13:44.353Z,4.70
2023-03-11T09:16:17.798Z,4.50
2023-03-11T09:18:45.497Z,4.60
2023-03-11T09:21:13.297Z,4.00
2023-03-11T09:23:43.974Z,4.70
2023-03-11T09:26:12.744Z,5.60
2023-03-11T09:28:42.509Z,4.90
2023-03-11T09:31:10.036Z,4.90
2023-03-11T09:33:39.986Z,4.90
2023-03-11T09:36:08.263Z,5.70
2023-03-11T09:38:35.755Z,5.10
2023-03-11T09:41:18.707Z,5.30
2023-03-11T09:44:01.412Z,5.20
2023-03-11T09:47:18.616Z,5.30
2023-03-11T09:50:07.100Z,5.00
2023-03-11T09:52:43.267Z,5.40
2023-03-11T09:56:09.055Z,5.60
2023-03-11T09:58:53.324Z,5.50
2023-03-11T10:01:26.483Z,5.50
2023-03-11T10:03:58.733Z,5.60
2023-03-11T10:06:30.530Z,5.60
2023-03-11T10:09:13.988Z,5.60
2023-03-11T10:12:08.507Z,5.50
2023-03-11T10:14:54.520Z,5.50
2023-03-11T10:17:50.592Z,6.20
2023-03-11T10:20:32.951Z,5.60
2023-03-11T10:23:00.331Z,5.70
2023-03-11T10:25:37.243Z,5.80
2023-03-11T10:28:13.761Z,5.80
2023-03-11T10:30:48.117Z,5.90
2023-03-11T10:33:30.491Z,5.90
2023-03-11T10:36:05.030Z,6.10
2023-03-11T10:38:42.304Z,6.00
2023-03-11T10:41:30.206Z,6.10
2023-03-11T10:44:07.561Z,6.10
2023-03-11T10:46:34.834Z,6.10
2023-03-11T10:49:02.397Z,6.20
2023-03-11T10:51:35.607Z,6.10
2023-03-11T10:54:04.262Z,6.10
2023-03-11T10:56:39.820Z,6.20
2023-03-11T10:59:24.936Z,6.20
2023-03-11T11:01:59.245Z,7.50
2023-03-11T11:04:38.591Z,6.60
2023-03-11T11:07:32.190Z,6.20
2023-03-11T11:10:17.980Z,6.30
2023-03-11T11:12:59.509Z,6.40
2023-03-11T11:15:29.172Z,6.50
2023-03-11T11:18:02.259Z,6.50
2023-03-11T11:20:31.262Z,6.50
2023-03-11T11:23:03.936Z,6.60
2023-03-11T11:25:41.058Z,6.60
2023-03-11T11:28:18.915Z,6.60
2023-03-11T11:31:25.798Z,6.20
2023-03-11T11:33:55.275Z,6.50
2023-03-11T11:36:29.579Z,6.50
2023-03-11T11:38:59.341Z,6.50
2023-03-11T11:41:29.341Z,6.50
2023-03-11T11:44:05.911Z,6.50
2023-03-11T11:46:41.758Z,6.50
2023-03-11T11:49:19.267Z,6.50
2023-03-11T11:52:15.625Z,6.40
2023-03-11T11:55:07.937Z,6.50
2023-03-11T11:57:35.268Z,6.20
2023-03-11T12:00:05.980Z,6.50
2023-03-11T12:02:53.655Z,6.40
2023-03-11T12:05:30.892Z,6.40
2023-03-11T12:08:24.991Z,6.40
2023-03-11T12:10:58.555Z,6.40
2023-03-11T12:13:51.002Z,6.40
2023-03-11T12:16:38.741Z,6.40
2023-03-11T12:19:12.294Z,5.80
2023-03-11T12:22:06.142Z,6.40
2023-03-11T12:25:01.412Z,6.40
2023-03-11T12:27:50.141Z,6.40
2023-03-11T12:30:27.212Z,6.50
2023-03-11T12:33:02.390Z,6.40
2023-03-11T12:35:33.519Z,6.50
2023-03-11T12:38:21.071Z,6.50
2023-03-11T12:40:50.762Z,6.50
2023-03-11T12:43:29.984Z,6.60
2023-03-11T12:46:01.062Z,6.60
2023-03-11T12:48:34.068Z,6.70
2023-03-11T12:51:02.555Z,6.70
2023-03-11T12:53:52.135Z,6.80
2023-03-11T12:56:28.673Z,6.80
2023-03-11T12:59:13.135Z,8.10
2023-03-11T13:02:21.004Z,7.00
2023-03-11T13:04:58.064Z,7.10
2023-03-11T13:07:49.504Z,7.20
2023-03-11T13:10:35.273Z,7.40
2023-03-11T13:13:25.599Z,7.50
2023-03-11T13:15:53.554Z,7.60
2023-03-11T13:18:32.945Z,7.70
2023-03-11T13:21:01.970Z,7.80
2023-03-11T13:23:38.113Z,7.90
2023-03-11T13:26:23.949Z,8.00
2023-03-11T13:28:59.782Z,8.10
2023-03-11T13:31:38.900Z,8.30
2023-03-11T13:34:47.149Z,8.30
2023-03-11T13:37:33.240Z,8.40
2023-03-11T13:40:32.348Z,8.80
2023-03-11T13:43:26.149Z,8.40
2023-03-11T13:46:04.245Z,8.40
2023-03-11T13:48:37.965Z,8.40
2023-03-11T13:51:13.611Z,8.40
2023-03-11T13:53:45.086Z,8.10
2023-03-11T13:56:29.019Z,8.40
2023-03-11T13:59:16.477Z,8.40
2023-03-11T14:01:52.725Z,8.40
2023-03-11T14:04:36.216Z,8.30
2023-03-11T14:07:31.756Z,8.20
2023-03-11T14:10:27.275Z,8.50
2023-03-11T14:13:17.309Z,8.20
2023-03-11T14:16:07.856Z,8.20
2023-03-11T14:18:38.478Z,8.20
2023-03-11T14:21:12.463Z,8.20
2023-03-11T14:23:48.710Z,8.30
2023-03-11T14:26:26.677Z,8.30
2023-03-11T14:28:59.659Z,8.30
2023-03-11T14:31:31.185Z,8.80
2023-03-11T14:34:04.640Z,8.30
2023-03-11T14:36:40.947Z,8.40
2023-03-11T14:39:30.940Z,8.40
2023-03-11T14:42:04.315Z,8.40
2023-03-11T14:44:40.480Z,8.40
2023-03-11T14:47:19.252Z,8.30
2023-03-11T14:49:49.061Z,8.20
2023-03-11T14:52:25.223Z,8.20
2023-03-11T14:54:54.425Z,8.20
2023-03-11T14:57:31.332Z,8.30
2023-03-11T14:59:59.262Z,8.40
2023-03-11T15:02:41.940Z,8.50
2023-03-11T15:05:26.953Z,8.50
2023-03-11T15:07:59.488Z,8.90
2023-03-11T15:10:26.818Z,9.20
2023-03-11T15:13:09.149Z,8.40
2023-03-11T15:15:36.690Z,8.40
2023-03-11T15:18:04.724Z,9.10
2023-03-11T15:20:35.504Z,8.50
2023-03-11T15:23:07.815Z,8.50
2023-03-11T15:25:38.530Z,8.50
2023-03-11T15:28:21.471Z,8.50
2023-03-11T15:30:49.062Z,8.40
2023-03-11T15:33:31.858Z,8.50
2023-03-11T15:35:59.197Z,8.50
2023-03-11T15:38:28.500Z,8.50
2023-03-11T15:41:01.257Z,8.60
2023-03-11T15:43:32.865Z,8.60
2023-03-11T15:46:02.891Z,8.50
2023-03-11T15:48:31.281Z,8.50
2023-03-11T15:50:59.754Z,8.50
2023-03-11T15:53:28.910Z,8.40
2023-03-11T15:56:06.874Z,8.50
2023-03-11T15:58:37.135Z,8.40
2023-03-11T16:01:04.579Z,8.40
2023-03-11T16:03:32.093Z,8.40
2023-03-11T16:05:59.673Z,8.80
2023-03-11T16:08:29.737Z,8.60
2023-03-11T16:10:58.990Z,8.30
2023-03-11T16:13:26.411Z,8.40
2023-03-11T16:15:53.802Z,8.30
2023-03-11T16:18:23.421Z,8.70
2023-03-11T16:20:53.097Z,8.40
2023-03-11T16:23:26.439Z,8.10
2023-03-11T16:25:58.956Z,8.10
2023-03-11T16:28:26.425Z,8.00
2023-03-11T16:30:53.829Z,8.00
2023-03-11T16:33:21.155Z,8.00
2023-03-11T16:35:48.697Z,8.20
2023-03-11T16:38:17.804Z,7.90
2023-03-11T16:40:45.731Z,7.90
2023-03-11T16:43:16.456Z,7.80
2023-03-11T16:45:43.697Z,7.80
2023-03-11T16:48:11.051Z,7.80
2023-03-11T16:50:38.443Z,7.40
2023-03-11T16:53:05.751Z,7.70
2023-03-11T16:55:33.734Z,7.70
2023-03-11T16:58:01.053Z,7.70
2023-03-11T17:00:28.603Z,7.60
2023-03-11T17:02:55.997Z,7.60
2023-03-11T17:05:23.327Z,7.60
2023-03-11T17:08:04.377Z,7.60
2023-03-11T17:10:38.237Z,7.50
2023-03-11T17:13:06.714Z,7.50
2023-03-11T17:15:35.368Z,7.50
2023-03-11T17:18:02.809Z,7.50
2023-03-11T17:20:30.187Z,7.40
2023-03-11T17:22:57.582Z,7.40
2023-03-11T17:25:24.862Z,7.30
2023-03-11T17:27:52.159Z,7.30
2023-03-11T17:30:35.706Z,7.20
2023-03-11T17:33:04.159Z,7.30
2023-03-11T17:35:31.814Z,7.30
2023-03-11T17:37:59.350Z,7.20
2023-03-11T17:40:27.175Z,7.20
2023-03-11T17:42:54.564Z,7.20
2023-03-11T17:45:21.879Z,7.20
2023-03-11T17:47:49.273Z,7.00
2023-03-11T17:50:17.524Z,6.80
2023-03-11T17:52:46.672Z,6.70
2023-03-11T17:55:14.114Z,6.50
2023-03-11T17:57:45.415Z,6.50
2023-03-11T18:00:14.950Z,6.40
2023-03-11T18:02:42.467Z,6.30
2023-03-11T18:05:09.944Z,6.80
2023-03-11T18:07:40.854Z,6.10
2023-03-11T18:10:09.163Z,6.10
2023-03-11T18:12:37.019Z,6.10
2023-03-11T18:15:08.267Z,5.90
2023-03-11T18:17:36.054Z,5.90
2023-03-11T18:20:04.723Z,5.90
2023-03-11T18:22:34.105Z,5.90
2023-03-11T18:25:02.589Z,8.00
2023-03-11T18:27:29.925Z,5.80
2023-03-11T18:29:57.177Z,5.80
2023-03-11T18:32:25.146Z,7.20
2023-03-11T18:34:53.628Z,6.80
2023-03-11T18:37:21.212Z,5.80
2023-03-11T18:39:48.568Z,5.80
2023-03-11T18:42:16.100Z,5.80
2023-03-11T18:44:43.448Z,5.80
2023-03-11T18:47:10.843Z,5.70
2023-03-11T18:49:38.230Z,5.70
2023-03-11T18:52:05.662Z,5.70
2023-03-11T18:54:32.983Z,5.70
2023-03-11T18:57:00.331Z,5.60
2023-03-11T18:59:27.973Z,5.80
2023-03-11T19:01:55.600Z,5.70
2023-03-11T19:04:23.111Z,5.80
2023-03-11T19:06:50.419Z,5.70
2023-03-11T19:09:20.966Z,5.70
2023-03-11T19:11:48.362Z,5.70
2023-03-11T19:14:15.764Z,5.70
2023-03-11T19:16:43.476Z,5.60
2023-03-11T19:19:12.078Z,5.70
2023-03-11T19:21:39.546Z,5.70
2023-03-11T19:24:09.518Z,5.70
2023-03-11T19:26:44.874Z,5.60
2023-03-11T19:29:15.459Z,5.70
2023-03-11T19:31:43.958Z,5.70
2023-03-11T19:34:11.571Z,5.70
2023-03-11T19:36:39.542Z,5.60
2023-03-11T19:39:07.647Z,5.60
2023-03-11T19:41:35.584Z,5.70
2023-03-11T19:44:04.354Z,5.60
2023-03-11T19:46:34.707Z,5.60
2023-03-11T19:49:03.523Z,5.50
2023-03-11T19:51:46.311Z,5.60
2023-03-11T19:54:16.767Z,5.60
2023-03-11T19:56:44.211Z,5.50
2023-03-11T19:59:11.873Z,5.90
2023-03-11T20:01:39.258Z,5.50
2023-03-11T20:04:06.657Z,5.50
2023-03-11T20:06:35.629Z,5.50
2023-03-11T20:09:02.973Z,5.50
2023-03-11T20:11:30.296Z,6.20
2023-03-11T20:13:58.003Z,5.50
2023-03-11T20:16:25.328Z,4.80
2023-03-11T20:19:00.161Z,5.50
2023-03-11T20:21:27.517Z,5.50
2023-03-11T20:23:55.831Z,5.60
2023-03-11T20:26:25.047Z,5.60
2023-03-11T20:28:56.153Z,5.50
2023-03-11T20:31:25.514Z,5.50
2023-03-11T20:33:59.155Z,5.50
2023-03-11T20:36:29.596Z,5.50
2023-03-11T20:38:57.396Z,5.80
2023-03-11T20:41:26.108Z,5.00
2023-03-11T20:43:57.532Z,5.60
2023-03-11T20:46:25.434Z,5.50
2023-03-11T20:48:52.927Z,5.50
2023-03-11T20:51:20.784Z,5.60
2023-03-11T20:57:08.824Z,5.60
2023-03-11T21:32:25.942Z,5.70
2023-03-11T21:34:58.066Z,5.70
2023-03-11T21:37:26.624Z,5.70
2023-03-11T22:37:25.378Z,6.00
2023-03-11T22:47:14.006Z,6.10
2023-03-11T22:57:20.808Z,6.10
2023-03-11T22:59:50.395Z,6.10
2023-03-11T23:03:08.409Z,6.20
2023-03-11T23:06:12.604Z,6.20
2023-03-11T23:08:39.935Z,6.20
2023-03-11T23:11:10.068Z,6.20
2023-03-11T23:14:06.886Z,6.20
2023-03-11T23:16:37.930Z,6.20
2023-03-11T23:30:03.718Z,6.30
2023-03-11T23:48:37.112Z,6.30
